Time;durP1;ratioP1;P1;durP2;ratioP2;P2;SDS_P1;SDS_P2;PMS_P1;PMS_P2;Temp;Humidity;BMP_temperature;BMP_pressure;BME280_temperature;BME280_humidity;BME280_pressure;Samples;Min_cycle;Max_cycle;Signal;HPM_P1;HPM_P2
2023/10/25 00:02:07;;;;;;;1.20;0.90;;;11.90;99.90;;;;;;5008990;28;20492;-80
2023/10/25 00:04:33;;;;;;;3.60;0.88;;;11.90;99.90;;;;;;5011441;28;20058;-82
2023/10/25 00:07:00;;;;;;;3.25;0.95;;;11.90;99.90;;;;;;5011967;28;20103;-82
2023/10/25 00:09:27;;;;;;;0.93;0.60;;;11.90;99.90;;;;;;5008200;28;20084;-81
2023/10/25 00:11:54;;;;;;;1.42;0.82;;;11.90;99.90;;;;;;5010843;28;20051;-80
2023/10/25 00:14:20;;;;;;;1.23;0.85;;;11.90;99.90;;;;;;5008380;28;20438;-81
2023/10/25 00:16:47;;;;;;;2.60;0.95;;;11.90;99.90;;;;;;5006853;28;20089;-80
2023/10/25 00:19:14;;;;;;;3.90;2.10;;;11.90;99.90;;;;;;5005682;28;20101;-82
2023/10/25 00:21:41;;;;;;;0.80;0.80;;;11.80;99.90;;;;;;4999839;28;20078;-82
2023/10/25 00:24:08;;;;;;;2.95;0.82;;;11.80;99.90;;;;;;5008526;28;20054;-82
2023/10/25 00:26:34;;;;;;;2.45;0.80;;;11.80;99.90;;;;;;5010084;28;20136;-82
2023/10/25 00:29:01;;;;;;;6.28;0.95;;;11.80;99.90;;;;;;5006643;28;20046;-82
2023/10/25 00:31:28;;;;;;;2.22;1.00;;;11.80;99.90;;;;;;5005516;28;20077;-79
2023/10/25 00:33:55;;;;;;;2.78;0.85;;;11.80;99.90;;;;;;5008360;28;20050;-82
2023/10/25 00:36:22;;;;;;;1.67;0.93;;;11.80;99.90;;;;;;5001085;28;20042;-80
2023/10/25 00:38:48;;;;;;;2.58;0.90;;;11.70;99.90;;;;;;5005855;28;20509;-80
2023/10/25 00:41:15;;;;;;;1.00;0.80;;;11.60;99.90;;;;;;5010373;28;20089;-82
2023/10/25 00:43:42;;;;;;;2.15;0.80;;;11.60;99.90;;;;;;5006594;28;20087;-80
2023/10/25 00:46:14;;;;;;;7.60;1.20;;;11.60;99.90;;;;;;5004083;28;20096;-82
2023/10/25 00:48:44;;;;;;;3.08;0.93;;;11.50;99.90;;;;;;5007545;28;20050;-82
2023/10/25 00:51:12;;;;;;;2.00;0.80;;;11.40;99.90;;;;;;5007400;28;20062;-82
2023/10/25 00:53:42;;;;;;;2.83;1.00;;;11.40;99.90;;;;;;5012835;28;20042;-81
2023/10/25 00:56:13;;;;;;;3.05;0.90;;;11.40;99.90;;;;;;5013828;28;20107;-81
2023/10/25 00:58:43;;;;;;;1.10;0.82;;;11.30;99.90;;;;;;5012245;28;20041;-82
2023/10/25 01:01:13;;;;;;;3.63;0.95;;;11.20;99.90;;;;;;5007092;28;20046;-82
2023/10/25 01:03:40;;;;;;;1.92;1.35;;;11.20;99.90;;;;;;5010968;28;20057;-82
2023/10/25 01:06:08;;;;;;;2.25;1.13;;;11.10;99.90;;;;;;5006783;28;20047;-81
2023/10/25 01:08:35;;;;;;;2.35;1.30;;;11.10;99.90;;;;;;5015743;28;20046;-81
2023/10/25 01:11:03;;;;;;;3.72;1.10;;;11.10;99.90;;;;;;5013419;28;20042;-82
2023/10/25 01:13:30;;;;;;;1.73;1.08;;;11.00;99.90;;;;;;5011875;28;20410;-82
2023/10/25 01:15:57;;;;;;;2.15;1.08;;;11.00;99.90;;;;;;5026912;28;20042;-81
2023/10/25 01:18:24;;;;;;;1.38;1.13;;;10.90;99.90;;;;;;5012138;28;20541;-82
2023/10/25 01:20:51;;;;;;;4.32;1.75;;;10.90;99.90;;;;;;5008210;28;20066;-81
2023/10/25 01:23:17;;;;;;;1.50;1.02;;;10.90;99.90;;;;;;5006310;28;20046;-80
2023/10/25 01:25:44;;;;;;;3.05;1.20;;;10.90;99.90;;;;;;5011369;28;20052;-81
2023/10/25 01:28:12;;;;;;;2.63;1.30;;;10.80;99.90;;;;;;5010347;28;20088;-81
2023/10/25 01:30:39;;;;;;;1.50;1.10;;;10.80;99.90;;;;;;5000650;28;20049;-82
2023/10/25 01:33:07;;;;;;;2.50;1.05;;;10.80;99.90;;;;;;5006190;28;20081;-81
2023/10/25 01:35:35;;;;;;;1.77;1.15;;;10.80;99.90;;;;;;5004358;28;20065;-82
2023/10/25 01:38:02;;;;;;;2.88;1.05;;;10.80;99.90;;;;;;5004069;28;20069;-81
2023/10/25 01:40:29;;;;;;;4.65;1.02;;;10.80;99.90;;;;;;5008709;28;20102;-81
2023/10/25 01:42:56;;;;;;;1.63;1.08;;;10.70;99.90;;;;;;5005798;28;20049;-82
2023/10/25 01:45:23;;;;;;;1.33;1.00;;;10.70;99.90;;;;;;5000782;28;20086;-80
2023/10/25 01:47:50;;;;;;;1.65;1.00;;;10.70;99.90;;;;;;5008014;28;20117;-80
2023/10/25 01:50:19;;;;;;;1.75;0.90;;;10.70;99.90;;;;;;5006016;28;20050;-83
2023/10/25 01:52:45;;;;;;;0.80;0.80;;;10.70;99.90;;;;;;5013214;28;20050;-81
2023/10/25 01:55:12;;;;;;;2.28;0.95;;;10.70;99.90;;;;;;5007814;28;20137;-80
2023/10/25 01:57:39;;;;;;;0.60;0.60;;;10.70;99.90;;;;;;5007726;28;20042;-81
2023/10/25 02:00:06;;;;;;;4.95;0.98;;;10.70;99.90;;;;;;5017060;28;20045;-82
2023/10/25 02:02:33;;;;;;;3.25;0.90;;;10.70;99.90;;;;;;5006727;28;20084;-82
2023/10/25 02:05:00;;;;;;;1.75;0.75;;;10.70;99.90;;;;;;5007569;28;20058;-80
2023/10/25 02:07:27;;;;;;;1.98;0.80;;;10.80;99.90;;;;;;5011375;28;20046;-82
2023/10/25 02:09:54;;;;;;;2.10;0.70;;;10.80;99.90;;;;;;5006190;28;20046;-82
2023/10/25 02:12:21;;;;;;;2.05;0.98;;;10.80;99.90;;;;;;5007575;28;20599;-81
2023/10/25 02:14:48;;;;;;;1.13;0.82;;;10.80;99.90;;;;;;5005820;28;20070;-81
2023/10/25 02:17:14;;;;;;;4.25;0.88;;;10.90;99.90;;;;;;5004333;28;20108;-82
2023/10/25 02:19:41;;;;;;;0.85;0.65;;;10.90;99.90;;;;;;5010060;28;20042;-81
2023/10/25 02:22:08;;;;;;;2.92;0.80;;;10.90;99.90;;;;;;5009582;28;20069;-81
2023/10/25 02:24:35;;;;;;;1.70;0.75;;;10.90;99.90;;;;;;5004129;28;20050;-82
2023/10/25 02:27:02;;;;;;;1.70;0.80;;;10.90;99.90;;;;;;5006533;28;20053;-80
2023/10/25 02:29:31;;;;;;;0.95;0.75;;;10.90;99.90;;;;;;5000974;28;20088;-82
2023/10/25 02:31:58;;;;;;;0.98;0.60;;;11.00;99.90;;;;;;5002778;28;20058;-81
2023/10/25 02:34:24;;;;;;;1.50;0.70;;;10.90;99.90;;;;;;5005770;28;20054;-82
2023/10/25 02:36:51;;;;;;;1.10;0.63;;;10.90;99.90;;;;;;5012059;28;20136;-81
2023/10/25 02:39:18;;;;;;;0.93;0.70;;;11.00;99.90;;;;;;5001994;28;20049;-80
2023/10/25 02:41:45;;;;;;;4.20;0.70;;;11.00;99.90;;;;;;5003470;28;20046;-81
2023/10/25 02:44:12;;;;;;;1.63;0.80;;;10.90;99.90;;;;;;5003095;28;20054;-81
2023/10/25 02:46:38;;;;;;;2.28;0.70;;;10.90;99.90;;;;;;5009551;28;20080;-82
2023/10/25 02:49:05;;;;;;;2.72;0.52;;;10.90;99.90;;;;;;5013365;28;20075;-80
2023/10/25 02:51:32;;;;;;;3.80;0.82;;;11.00;99.90;;;;;;5010737;28;20046;-82
2023/10/25 02:53:59;;;;;;;2.08;0.73;;;11.00;99.90;;;;;;5004769;28;20137;-81
2023/10/25 02:56:25;;;;;;;2.15;0.70;;;11.00;99.90;;;;;;5007353;28;20494;-81
2023/10/25 02:58:52;;;;;;;1.27;0.70;;;11.00;99.90;;;;;;5002278;28;20461;-81
2023/10/25 03:01:21;;;;;;;3.05;0.60;;;11.00;99.90;;;;;;5004507;28;20628;-81
2023/10/25 03:03:48;;;;;;;1.42;0.65;;;10.90;99.90;;;;;;5013487;28;20053;-81
2023/10/25 03:06:15;;;;;;;1.98;0.70;;;10.90;99.90;;;;;;5008191;28;20097;-81
2023/10/25 03:08:42;;;;;;;2.30;0.77;;;10.90;99.90;;;;;;5002780;28;20080;-80
2023/10/25 03:11:09;;;;;;;4.07;0.68;;;10.90;99.90;;;;;;5006647;28;20502;-82
2023/10/25 03:13:35;;;;;;;2.15;0.50;;;10.90;99.90;;;;;;5001693;28;20100;-82
2023/10/25 03:16:02;;;;;;;4.28;0.70;;;10.90;99.90;;;;;;5013941;28;20468;-82
2023/10/25 03:18:29;;;;;;;2.47;1.00;;;10.90;99.90;;;;;;5006516;28;20061;-81
2023/10/25 03:21:03;;;;;;;1.85;0.80;;;10.80;99.90;;;;;;5006825;28;20411;-82
2023/10/25 03:23:33;;;;;;;4.55;0.80;;;10.80;99.90;;;;;;5003832;28;20074;-82
2023/10/25 03:26:07;;;;;;;2.53;0.68;;;10.80;99.90;;;;;;5002956;28;20104;-81
2023/10/25 03:28:34;;;;;;;1.48;0.70;;;10.80;99.90;;;;;;5006634;28;20053;-80
2023/10/25 03:31:10;;;;;;;6.35;1.20;;;10.70;99.90;;;;;;4998523;28;20046;-79
2023/10/25 03:33:37;;;;;;;1.83;1.10;;;10.80;99.90;;;;;;5007449;28;20415;-82
2023/10/25 03:36:04;;;;;;;1.77;0.90;;;10.70;99.90;;;;;;5008393;28;20469;-82
2023/10/25 03:38:31;;;;;;;0.73;0.70;;;10.80;99.90;;;;;;5000083;28;20501;-81
2023/10/25 03:41:05;;;;;;;1.38;0.85;;;10.70;99.90;;;;;;5003120;28;20084;-80
2023/10/25 03:43:33;;;;;;;3.13;1.00;;;10.70;99.90;;;;;;5005432;28;20074;-83
2023/10/25 03:46:05;;;;;;;3.75;1.00;;;10.80;99.90;;;;;;5009853;28;20041;-81
2023/10/25 03:48:33;;;;;;;1.23;1.13;;;10.80;99.90;;;;;;5008729;28;20050;-81
2023/10/25 03:51:04;;;;;;;0.82;0.82;;;10.80;99.90;;;;;;5008452;28;20049;-81
2023/10/25 03:53:36;;;;;;;2.47;0.80;;;10.80;99.90;;;;;;5009263;28;20093;-82
2023/10/25 03:56:03;;;;;;;1.52;1.10;;;10.70;99.90;;;;;;5006309;28;20121;-81
2023/10/25 03:58:30;;;;;;;2.85;1.33;;;10.70;99.90;;;;;;5002097;28;20050;-80
2023/10/25 04:00:58;;;;;;;1.33;1.02;;;10.70;99.90;;;;;;5008551;28;20046;-82
2023/10/25 04:03:25;;;;;;;1.13;1.00;;;10.70;99.90;;;;;;5003005;28;20050;-81
2023/10/25 04:05:52;;;;;;;1.15;1.05;;;10.70;99.90;;;;;;5011425;28;20045;-81
2023/10/25 04:08:19;;;;;;;1.15;0.80;;;10.60;99.90;;;;;;4999399;28;20053;-81
2023/10/25 04:10:54;;;;;;;2.83;1.08;;;10.70;99.90;;;;;;5004913;28;20042;-80
2023/10/25 04:13:21;;;;;;;3.33;1.00;;;10.60;99.90;;;;;;5007253;28;20049;-81
2023/10/25 04:15:59;;;;;;;1.33;1.13;;;10.70;99.90;;;;;;5009085;28;20073;-81
2023/10/25 04:18:28;;;;;;;2.30;1.13;;;10.60;99.90;;;;;;5002721;28;20483;-82
2023/10/25 04:20:56;;;;;;;9.57;1.55;;;10.60;99.90;;;;;;5005460;28;20062;-82
2023/10/25 04:23:24;;;;;;;1.92;1.20;;;10.60;99.90;;;;;;5002886;28;20046;-83
2023/10/25 04:25:51;;;;;;;1.60;1.50;;;10.50;99.90;;;;;;5013957;28;20053;-81
2023/10/25 04:28:18;;;;;;;5.15;1.90;;;10.50;99.90;;;;;;5010840;28;20100;-81
2023/10/25 04:30:45;;;;;;;5.30;4.85;;;10.40;99.90;;;;;;5010648;28;20053;-81
2023/10/25 04:33:12;;;;;;;5.30;2.97;;;10.40;99.90;;;;;;5007702;28;20054;-81
2023/10/25 04:35:41;;;;;;;6.97;3.15;;;10.40;99.90;;;;;;5010661;28;20051;-80
2023/10/25 04:38:08;;;;;;;3.85;3.10;;;10.30;99.90;;;;;;5004221;28;20042;-82
2023/10/25 04:40:35;;;;;;;5.55;2.67;;;10.30;99.90;;;;;;5010015;28;20065;-80
2023/10/25 04:43:02;;;;;;;3.35;2.00;;;10.30;99.90;;;;;;5014546;28;20042;-81
2023/10/25 04:45:29;;;;;;;2.85;1.60;;;10.20;99.90;;;;;;5017073;28;20505;-81
2023/10/25 04:47:55;;;;;;;2.92;2.47;;;10.20;99.90;;;;;;5008047;28;20563;-82
2023/10/25 04:50:23;;;;;;;2.45;2.25;;;10.20;99.90;;;;;;5008463;28;20051;-79
2023/10/25 04:52:50;;;;;;;4.45;2.42;;;10.10;99.90;;;;;;5005912;28;20402;-81
2023/10/25 04:55:17;;;;;;;2.45;1.92;;;10.10;99.90;;;;;;5007146;28;20093;-81
2023/10/25 04:57:44;;;;;;;1.80;1.67;;;10.10;99.90;;;;;;5013351;28;20046;-79
2023/10/25 05:00:12;;;;;;;2.35;1.98;;;10.10;99.90;;;;;;5012288;28;20046;-82
2023/10/25 05:02:39;;;;;;;2.45;1.35;;;10.10;99.90;;;;;;5008363;28;20043;-81
2023/10/25 05:05:07;;;;;;;2.30;1.90;;;10.10;99.90;;;;;;5008314;28;20125;-81
2023/10/25 05:07:36;;;;;;;1.73;1.55;;;10.10;99.90;;;;;;5007020;28;20046;-80
2023/10/25 05:10:08;;;;;;;1.67;1.20;;;10.10;99.90;;;;;;5005644;28;20046;-81
2023/10/25 05:12:43;;;;;;;3.22;1.15;;;10.20;99.90;;;;;;5011864;28;20089;-81
2023/10/25 05:15:14;;;;;;;1.90;1.08;;;10.10;99.90;;;;;;5014490;28;20047;-80
2023/10/25 05:17:45;;;;;;;1.13;1.00;;;10.20;99.90;;;;;;5021620;28;20042;-80
2023/10/25 05:20:12;;;;;;;2.15;1.40;;;10.20;99.90;;;;;;5011760;28;20054;-80
2023/10/25 05:22:41;;;;;;;1.88;1.40;;;10.30;99.90;;;;;;5006038;28;20050;-82
2023/10/25 05:25:09;;;;;;;2.03;1.55;;;10.30;99.90;;;;;;5009793;28;20490;-81
2023/10/25 05:27:37;;;;;;;1.63;1.05;;;10.40;99.90;;;;;;5012757;28;20482;-81
2023/10/25 05:30:07;;;;;;;1.05;0.60;;;10.40;99.90;;;;;;5016153;28;20572;-81
2023/10/25 05:32:35;;;;;;;0.75;0.50;;;10.50;99.90;;;;;;5006028;28;20050;-80
2023/10/25 05:35:05;;;;;;;0.85;0.60;;;10.60;99.90;;;;;;5015607;28;20050;-80
2023/10/25 05:37:32;;;;;;;0.40;0.40;;;10.70;99.90;;;;;;5017330;28;20068;-80
2023/10/25 05:39:59;;;;;;;1.42;0.57;;;10.70;99.90;;;;;;5008889;28;20045;-80
2023/10/25 05:42:27;;;;;;;1.10;0.47;;;10.80;99.90;;;;;;5010729;28;20046;-81
2023/10/25 05:44:55;;;;;;;0.77;0.60;;;10.80;99.90;;;;;;5011885;28;20073;-82
2023/10/25 05:47:26;;;;;;;1.88;0.80;;;10.90;99.90;;;;;;5004865;28;20118;-81
2023/10/25 05:49:53;;;;;;;1.83;1.13;;;11.00;99.90;;;;;;5010628;28;20042;-80
2023/10/25 05:52:21;;;;;;;1.83;0.80;;;11.10;99.90;;;;;;5003539;28;20104;-81
2023/10/25 05:54:48;;;;;;;1.05;0.80;;;11.20;99.90;;;;;;5013893;28;20057;-81
2023/10/25 05:57:15;;;;;;;1.67;0.90;;;11.30;99.90;;;;;;5010462;28;20053;-80
2023/10/25 05:59:42;;;;;;;1.20;1.10;;;11.30;99.90;;;;;;5017599;28;20124;-82
2023/10/25 06:02:14;;;;;;;0.70;0.70;;;11.40;99.90;;;;;;5010649;28;20042;-80
2023/10/25 06:04:42;;;;;;;1.10;0.63;;;11.50;99.90;;;;;;5009708;28;20417;-81
2023/10/25 06:07:11;;;;;;;3.72;0.85;;;11.60;99.90;;;;;;5008936;28;20056;-79
2023/10/25 06:09:39;;;;;;;0.60;0.60;;;11.60;99.90;;;;;;5019229;28;20113;-81
2023/10/25 06:12:07;;;;;;;0.77;0.50;;;11.70;99.90;;;;;;5016278;28;20056;-80
2023/10/25 06:14:34;;;;;;;1.05;0.73;;;11.80;99.90;;;;;;5007761;28;20135;-81
2023/10/25 06:17:01;;;;;;;2.03;0.60;;;11.90;99.90;;;;;;5002013;28;20104;-81
2023/10/25 06:19:29;;;;;;;0.40;0.40;;;11.90;99.90;;;;;;5006064;28;20129;-80
2023/10/25 06:21:55;;;;;;;1.02;0.60;;;11.90;99.90;;;;;;5006591;28;20077;-80
2023/10/25 06:24:23;;;;;;;1.05;0.50;;;12.00;99.90;;;;;;5011886;28;20056;-80
2023/10/25 06:26:49;;;;;;;0.45;0.45;;;12.00;99.90;;;;;;5021766;28;20050;-81
2023/10/25 06:29:16;;;;;;;1.13;0.30;;;12.00;99.90;;;;;;5007090;28;20057;-81
2023/10/25 06:31:50;;;;;;;0.50;0.50;;;12.10;99.90;;;;;;5000780;28;20054;-82
2023/10/25 06:34:21;;;;;;;3.92;0.60;;;12.10;99.90;;;;;;5012318;28;20061;-81
2023/10/25 06:36:48;;;;;;;0.75;0.70;;;12.20;99.90;;;;;;5027112;28;20046;-82
2023/10/25 06:39:16;;;;;;;0.40;0.40;;;12.30;99.90;;;;;;5010215;28;20466;-81
2023/10/25 06:41:43;;;;;;;1.65;0.50;;;12.30;99.90;;;;;;5007454;28;20521;-81
2023/10/25 06:44:11;;;;;;;0.95;0.50;;;12.40;99.90;;;;;;5008528;28;20133;-81
2023/10/25 06:46:38;;;;;;;0.70;0.50;;;12.50;99.90;;;;;;5002665;28;20054;-80
2023/10/25 06:49:05;;;;;;;0.40;0.40;;;12.50;99.90;;;;;;5004934;28;20046;-81
2023/10/25 06:51:33;;;;;;;0.50;0.50;;;12.60;99.90;;;;;;5011408;28;20128;-81
2023/10/25 06:54:00;;;;;;;2.63;1.02;;;12.60;99.90;;;;;;5009716;28;20453;-80
2023/10/25 06:56:29;;;;;;;1.95;0.50;;;12.70;99.90;;;;;;5004035;28;20399;-82
2023/10/25 06:58:56;;;;;;;0.73;0.47;;;12.70;99.90;;;;;;5008743;28;20041;-81
2023/10/25 07:01:25;;;;;;;1.10;0.60;;;12.80;99.90;;;;;;5002600;28;20073;-82
2023/10/25 07:03:57;;;;;;;0.60;0.53;;;12.80;99.90;;;;;;5007067;28;20465;-82
2023/10/25 07:06:24;;;;;;;2.83;0.75;;;12.80;99.90;;;;;;5011361;28;20510;-81
2023/10/25 07:08:51;;;;;;;1.08;0.60;;;12.80;99.90;;;;;;5008980;28;20486;-81
2023/10/25 07:11:18;;;;;;;0.50;0.50;;;12.90;99.90;;;;;;5013156;28;20053;-81
2023/10/25 07:13:46;;;;;;;0.70;0.57;;;12.90;99.90;;;;;;5007011;28;20054;-81
2023/10/25 07:16:13;;;;;;;0.75;0.50;;;12.90;99.90;;;;;;5002401;28;20112;-81
2023/10/25 07:18:40;;;;;;;0.50;0.50;;;12.90;99.90;;;;;;5004655;28;20077;-81
2023/10/25 07:21:08;;;;;;;2.05;0.70;;;13.00;99.90;;;;;;5009143;28;20061;-81
2023/10/25 07:23:35;;;;;;;0.55;0.50;;;13.00;99.90;;;;;;5005930;28;20050;-81
2023/10/25 07:26:01;;;;;;;0.35;0.35;;;13.10;99.90;;;;;;5003750;28;20041;-81
2023/10/25 07:28:28;;;;;;;0.50;0.50;;;13.20;99.90;;;;;;5003812;28;20050;-81
2023/10/25 07:30:55;;;;;;;0.82;0.45;;;13.20;99.90;;;;;;5004815;28;20518;-81
2023/10/25 07:33:22;;;;;;;0.70;0.70;;;13.30;99.90;;;;;;5001591;28;20050;-81
2023/10/25 07:35:49;;;;;;;1.92;0.80;;;13.30;99.90;;;;;;5010528;28;20050;-80
2023/10/25 07:38:16;;;;;;;0.70;0.50;;;13.30;99.90;;;;;;5010699;28;20046;-81
2023/10/25 07:40:43;;;;;;;1.95;1.42;;;13.30;99.90;;;;;;5003926;28;20704;-81
2023/10/25 07:43:09;;;;;;;0.60;0.60;;;13.40;99.90;;;;;;5014459;28;20060;-81
2023/10/25 07:45:36;;;;;;;0.93;0.70;;;13.40;99.90;;;;;;5000579;28;20095;-80
2023/10/25 07:48:03;;;;;;;1.20;0.68;;;13.40;99.90;;;;;;5005708;28;20049;-81
2023/10/25 07:50:31;;;;;;;2.65;0.57;;;13.50;99.90;;;;;;5006504;28;20061;-81
2023/10/25 07:52:58;;;;;;;0.43;0.40;;;13.50;99.90;;;;;;5006981;28;20623;-81
2023/10/25 07:55:25;;;;;;;0.60;0.60;;;13.60;99.90;;;;;;4999326;28;20051;-81
2023/10/25 07:57:54;;;;;;;0.40;0.40;;;13.60;99.90;;;;;;5005369;28;20501;-81
2023/10/25 08:00:24;;;;;;;0.93;0.50;;;13.70;99.90;;;;;;5001960;28;20054;-80
2023/10/25 08:02:51;;;;;;;0.73;0.57;;;13.70;99.90;;;;;;5009495;28;20049;-81
2023/10/25 08:05:17;;;;;;;0.50;0.50;;;13.70;99.90;;;;;;5005500;28;20128;-81
2023/10/25 08:07:47;;;;;;;0.38;0.38;;;13.70;99.90;;;;;;5006844;28;20062;-81
2023/10/25 08:10:14;;;;;;;1.00;0.82;;;13.80;99.90;;;;;;5001536;28;20053;-80
2023/10/25 08:12:41;;;;;;;0.40;0.40;;;13.80;99.90;;;;;;5007496;28;20616;-81
2023/10/25 08:15:08;;;;;;;0.50;0.50;;;13.80;99.90;;;;;;5004879;28;20494;-80
2023/10/25 08:17:35;;;;;;;0.40;0.40;;;13.90;99.90;;;;;;5007443;28;20050;-81
2023/10/25 08:20:04;;;;;;;1.65;0.50;;;13.90;99.90;;;;;;5005584;28;20128;-80
2023/10/25 08:22:33;;;;;;;0.88;0.50;;;13.90;99.90;;;;;;5007291;28;20050;-81
2023/10/25 08:25:00;;;;;;;2.28;0.50;;;14.00;99.90;;;;;;5000524;28;20046;-81
2023/10/25 08:27:27;;;;;;;0.75;0.43;;;14.00;99.90;;;;;;5005799;28;20054;-81
2023/10/25 08:29:54;;;;;;;0.50;0.40;;;14.10;99.90;;;;;;5008914;28;20085;-81
2023/10/25 08:32:20;;;;;;;1.73;0.47;;;14.10;99.90;;;;;;5013125;28;20493;-81
2023/10/25 08:34:47;;;;;;;0.50;0.32;;;14.20;99.90;;;;;;5005115;28;20081;-81
2023/10/25 08:37:14;;;;;;;0.60;0.40;;;14.30;99.90;;;;;;5011872;28;20109;-80
2023/10/25 08:39:42;;;;;;;0.43;0.38;;;14.40;99.90;;;;;;5004470;28;20054;-81
2023/10/25 08:42:13;;;;;;;0.45;0.45;;;14.50;99.90;;;;;;5003089;28;20074;-80
2023/10/25 08:44:43;;;;;;;1.83;0.57;;;14.50;99.90;;;;;;5007296;28;20050;-80
2023/10/25 08:47:11;;;;;;;1.27;0.50;;;14.60;99.90;;;;;;5010963;28;20461;-82
2023/10/25 08:49:38;;;;;;;1.15;0.30;;;14.60;99.90;;;;;;5003264;28;20050;-81
2023/10/25 08:52:07;;;;;;;2.20;0.50;;;14.70;99.90;;;;;;5007268;28;20472;-82
2023/10/25 08:54:35;;;;;;;1.73;0.50;;;14.70;99.90;;;;;;5001791;28;20050;-81
2023/10/25 08:57:04;;;;;;;0.52;0.45;;;14.70;99.90;;;;;;5001680;28;20085;-81
2023/10/25 08:59:46;;;;;;;1.58;0.40;;;14.80;99.90;;;;;;5005707;28;20058;-81
2023/10/25 09:02:14;;;;;;;3.13;0.50;;;14.80;99.90;;;;;;5008297;28;20049;-81
2023/10/25 09:05:02;;;;;;;8.40;0.60;;;14.80;99.90;;;;;;5002925;28;20608;-81
2023/10/25 09:07:32;;;;;;;0.43;0.43;;;14.90;99.90;;;;;;5011525;28;20050;-81
2023/10/25 09:09:59;;;;;;;1.73;0.60;;;14.90;99.90;;;;;;5002587;28;20046;-81
2023/10/25 09:12:26;;;;;;;7.63;0.60;;;14.90;99.90;;;;;;5009380;28;20054;-81
2023/10/25 09:14:53;;;;;;;1.83;0.52;;;15.00;99.90;;;;;;5013866;28;20061;-81
2023/10/25 09:17:20;;;;;;;4.63;0.82;;;15.10;99.90;;;;;;5012868;28;20042;-82
2023/10/25 09:19:50;;;;;;;2.05;0.68;;;15.20;99.90;;;;;;5006407;28;20512;-81
2023/10/25 09:22:22;;;;;;;1.60;0.70;;;15.20;99.90;;;;;;5010007;28;20094;-81
2023/10/25 09:24:50;;;;;;;1.15;0.75;;;15.30;99.90;;;;;;5015940;28;20051;-81
2023/10/25 09:27:21;;;;;;;3.33;1.60;;;15.30;99.90;;;;;;5011118;28;20050;-81
2023/10/25 09:29:49;;;;;;;1.33;1.10;;;15.30;99.90;;;;;;5012274;28;20046;-81
2023/10/25 09:32:21;;;;;;;0.95;0.65;;;15.40;99.90;;;;;;5014794;28;20132;-80
2023/10/25 09:34:48;;;;;;;1.08;0.50;;;15.40;99.90;;;;;;5005876;28;20130;-81
2023/10/25 09:37:16;;;;;;;2.05;0.85;;;15.50;99.90;;;;;;5012657;28;20446;-80
2023/10/25 09:39:42;;;;;;;2.22;1.00;;;15.50;99.90;;;;;;5005179;28;20051;-81
2023/10/25 09:42:11;;;;;;;3.10;1.27;;;15.50;99.90;;;;;;5009021;28;20057;-81
2023/10/25 09:44:50;;;;;;;3.15;1.50;;;15.60;99.90;;;;;;5010896;28;20425;-81
2023/10/25 09:47:18;;;;;;;2.90;1.63;;;15.60;99.90;;;;;;5006701;28;20113;-80
2023/10/25 09:49:52;;;;;;;3.45;1.38;;;15.60;99.90;;;;;;5004484;28;20433;-82
2023/10/25 09:52:22;;;;;;;2.83;1.70;;;15.60;99.90;;;;;;5008918;28;20050;-81
2023/10/25 09:54:58;;;;;;;3.53;1.90;;;15.60;99.90;;;;;;5005365;28;20498;-79
2023/10/25 09:57:29;;;;;;;2.42;1.30;;;15.60;99.90;;;;;;5008328;28;20073;-81
2023/10/25 09:59:57;;;;;;;2.15;1.30;;;15.70;99.90;;;;;;5012365;28;20046;-80
2023/10/25 10:02:46;;;;;;;2.58;1.52;;;15.70;99.90;;;;;;5010002;28;20054;-81
2023/10/25 10:05:27;;;;;;;1.65;1.25;;;15.70;99.90;;;;;;5004075;28;20042;-83
2023/10/25 10:08:17;;;;;;;2.00;1.30;;;15.70;99.90;;;;;;5010161;28;20529;-81
2023/10/25 10:10:55;;;;;;;5.07;2.95;;;15.80;99.90;;;;;;5018426;28;20077;-81
2023/10/25 10:13:23;;;;;;;2.00;1.50;;;15.80;99.90;;;;;;5014426;28;20046;-82
2023/10/25 10:16:04;;;;;;;2.97;1.33;;;15.80;99.90;;;;;;5010860;28;20046;-80
2023/10/25 10:18:33;;;;;;;1.98;0.60;;;15.90;99.90;;;;;;5004818;28;20098;-81
2023/10/25 10:21:03;;;;;;;1.83;1.20;;;15.90;99.90;;;;;;5006837;28;20043;-81
2023/10/25 10:23:49;;;;;;;1.40;0.90;;;15.90;99.90;;;;;;5009271;28;20043;-82
2023/10/25 10:26:44;;;;;;;2.88;1.75;;;15.90;99.90;;;;;;5012778;28;20042;-82
2023/10/25 10:29:30;;;;;;;1.65;1.00;;;16.00;99.90;;;;;;5010153;28;20669;-81
2023/10/25 10:31:58;;;;;;;2.75;1.00;;;16.00;99.90;;;;;;5010376;28;20053;-81
2023/10/25 10:34:57;;;;;;;3.15;0.80;;;16.10;99.90;;;;;;5004506;28;20077;-81
2023/10/25 10:37:26;;;;;;;2.40;1.20;;;16.20;99.90;;;;;;5009857;28;20537;-81
2023/10/25 10:39:56;;;;;;;6.90;0.77;;;16.30;99.90;;;;;;5014911;28;20088;-81
2023/10/25 10:42:29;;;;;;;0.75;0.70;;;16.30;99.90;;;;;;5008352;28;20075;-81
2023/10/25 10:45:00;;;;;;;1.42;0.85;;;16.30;99.90;;;;;;5009886;28;20046;-81
2023/10/25 10:47:39;;;;;;;1.13;0.57;;;16.30;99.90;;;;;;5009189;28;20053;-82
2023/10/25 10:50:14;;;;;;;0.95;0.40;;;16.40;99.90;;;;;;5003257;28;20050;-81
2023/10/25 10:52:43;;;;;;;2.47;0.50;;;16.40;99.90;;;;;;5008657;28;20498;-81
2023/10/25 10:55:14;;;;;;;1.05;0.45;;;16.40;99.90;;;;;;5011048;28;20422;-81
2023/10/25 10:57:41;;;;;;;0.90;0.45;;;16.40;99.90;;;;;;5016084;28;20100;-81
2023/10/25 11:00:28;;;;;;;1.15;0.43;;;16.40;99.90;;;;;;5016518;28;20038;-80
2023/10/25 11:02:55;;;;;;;0.77;0.47;;;16.40;99.90;;;;;;5005423;28;20138;-82
2023/10/25 11:05:23;;;;;;;1.17;0.60;;;16.40;99.90;;;;;;5008813;28;20069;-81
2023/10/25 11:07:51;;;;;;;1.35;0.40;;;16.40;99.90;;;;;;5007371;28;20042;-80
2023/10/25 11:10:18;;;;;;;0.45;0.40;;;16.40;99.90;;;;;;5006958;28;20092;-81
2023/10/25 11:12:46;;;;;;;1.90;0.35;;;16.40;99.90;;;;;;5002918;28;20508;-81
2023/10/25 11:15:13;;;;;;;1.10;0.68;;;16.40;99.90;;;;;;5009503;28;21292;-82
2023/10/25 11:17:40;;;;;;;1.38;0.60;;;16.40;99.90;;;;;;5011131;28;20050;-80
2023/10/25 11:20:07;;;;;;;6.50;0.90;;;16.30;99.90;;;;;;5017217;28;20101;-81
2023/10/25 11:22:36;;;;;;;1.90;0.98;;;16.30;99.90;;;;;;5011497;28;20041;-80
2023/10/25 11:25:10;;;;;;;2.88;1.00;;;16.20;99.90;;;;;;5017287;28;20046;-79
2023/10/25 11:27:37;;;;;;;11.15;2.00;;;16.10;99.90;;;;;;5007192;28;20046;-79
2023/10/25 11:30:05;;;;;;;1.60;0.50;;;16.10;99.90;;;;;;5006599;28;20052;-79
2023/10/25 11:32:33;;;;;;;3.08;1.42;;;16.00;99.90;;;;;;5013008;28;20133;-80
2023/10/25 11:35:02;;;;;;;1.30;0.60;;;15.90;99.90;;;;;;5000000;28;20050;-78
2023/10/25 11:37:46;;;;;;;1.40;0.70;;;15.90;99.90;;;;;;5006423;28;20512;-80
2023/10/25 11:40:12;;;;;;;1.33;0.65;;;15.90;99.90;;;;;;5014263;28;20046;-79
2023/10/25 11:42:41;;;;;;;1.75;0.60;;;15.90;99.90;;;;;;5003723;28;20053;-80
2023/10/25 11:45:08;;;;;;;1.73;0.82;;;15.80;99.90;;;;;;5010899;28;20088;-80
2023/10/25 11:47:38;;;;;;;1.15;0.57;;;15.80;99.90;;;;;;5006282;28;20081;-80
2023/10/25 11:50:05;;;;;;;4.32;1.30;;;15.80;99.90;;;;;;5005473;28;20064;-79
2023/10/25 11:52:32;;;;;;;1.33;0.98;;;15.80;99.90;;;;;;5006807;28;20045;-80
2023/10/25 11:55:01;;;;;;;2.25;1.10;;;15.80;99.90;;;;;;5006390;28;20050;-80
2023/10/25 11:57:30;;;;;;;1.80;1.10;;;15.70;99.90;;;;;;5010452;28;20121;-78
2023/10/25 11:59:57;;;;;;;0.95;0.60;;;15.70;99.90;;;;;;5003025;28;20418;-79
2023/10/25 12:02:25;;;;;;;2.25;0.70;;;15.60;99.90;;;;;;5010830;28;20121;-80
2023/10/25 12:04:53;;;;;;;1.55;0.52;;;15.60;99.90;;;;;;5001588;28;20085;-80
2023/10/25 12:07:21;;;;;;;0.50;0.40;;;15.50;99.90;;;;;;5006844;28;20042;-80
2023/10/25 12:09:49;;;;;;;1.75;0.73;;;15.40;99.90;;;;;;5006574;28;20470;-80
2023/10/25 12:12:16;;;;;;;2.85;1.20;;;15.40;99.90;;;;;;5002327;28;20050;-79
2023/10/25 12:14:43;;;;;;;1.00;0.75;;;15.30;99.90;;;;;;5006453;28;20099;-81
2023/10/25 12:17:10;;;;;;;1.17;0.60;;;15.30;99.90;;;;;;5006636;28;20042;-80
2023/10/25 12:19:39;;;;;;;0.52;0.50;;;15.20;99.90;;;;;;5008372;28;20096;-80
2023/10/25 12:22:08;;;;;;;1.25;0.90;;;15.20;99.90;;;;;;5006969;28;20064;-80
2023/10/25 12:24:35;;;;;;;3.72;0.82;;;15.10;99.90;;;;;;5008002;28;20402;-80
2023/10/25 12:27:03;;;;;;;2.63;1.65;;;15.10;99.90;;;;;;5002431;28;20509;-79
2023/10/25 12:29:31;;;;;;;3.65;2.40;;;15.00;99.90;;;;;;5002607;28;20046;-80
2023/10/25 12:31:58;;;;;;;1.17;0.95;;;15.00;99.90;;;;;;5004776;28;20104;-80
2023/10/25 12:34:24;;;;;;;2.60;0.90;;;15.00;99.90;;;;;;5004811;28;20464;-80
2023/10/25 12:36:52;;;;;;;0.80;0.60;;;15.00;99.90;;;;;;5005176;28;20088;-80
2023/10/25 12:39:20;;;;;;;2.90;0.50;;;15.00;99.90;;;;;;5007088;28;20050;-80
2023/10/25 12:41:47;;;;;;;2.33;0.63;;;15.00;99.90;;;;;;4999776;28;20446;-80
2023/10/25 12:44:14;;;;;;;4.55;0.90;;;15.10;99.90;;;;;;5005934;28;20046;-80
2023/10/25 12:46:42;;;;;;;3.80;0.68;;;15.10;99.90;;;;;;5007926;28;20049;-78
2023/10/25 12:49:11;;;;;;;1.48;0.98;;;15.10;99.90;;;;;;5014050;28;20099;-80
2023/10/25 12:51:38;;;;;;;1.25;0.60;;;15.10;99.90;;;;;;5010074;28;20096;-80
2023/10/25 12:54:06;;;;;;;2.22;1.05;;;15.10;99.90;;;;;;5009084;28;20178;-80
2023/10/25 12:56:34;;;;;;;2.40;0.80;;;15.10;99.90;;;;;;5004090;28;20042;-80